Saturday, December 16, 2017, 9:12 PM EST
Back to Local

KFKL, Franklin, Venango Regional Airport

Location: Franklin, PA, United States Lat: 41.383
Local Time: 9:12 PM EST ( 2:12 GMT) Lon: -79.867
Time Zone: US/Eastern Elev: 1538 ft

Show me the last for .
Show Decoded

2017-12-16 20:56 METAR KFKL 170156Z AUTO 00000KT 7SM OVC100 M02/M03 A3010 RMK AO2 SLP214
                 T10171028 FZRANO =
2017-12-16 19:56 METAR KFKL 170056Z AUTO 04003KT 7SM OVC037 M01/M02 A3009 RMK AO2 SLP210
                 T10111022 FZRANO =
2017-12-16 18:56 METAR KFKL 162356Z AUTO 00000KT 10SM OVC033 M01/M03 A3008 RMK AO2 SLP205 60000
                 T10061028 10000 21006 52025 FZRANO =
2017-12-16 17:56 METAR KFKL 162256Z AUTO 00000KT 10SM OVC031 00/M03 A3005 RMK AO2 UPE2158 SLP195
                 P0000 T00001028 FZRANO =
2017-12-16 17:44 METAR KFKL 162244Z AUTO 00000KT 10SM OVC031 00/M03 A3005 RMK AO2 UPE2158 P0000
                 FZRANO =
2017-12-16 16:56 METAR KFKL 162156Z AUTO 00000KT 10SM UP OVC029 00/M03 A3003 RMK AO2 SNB18E31
                 SLP188 P0000 T00001028 FZRANO =
2017-12-16 15:56 METAR KFKL 162056Z AUTO 25004KT 10SM UP OVC027 00/M03 A3000 RMK AO2 UPB28SNE28
                 SLP179 P0000 60000 T00001028 53012 FZRANO =
2017-12-16 14:56 METAR KFKL 161956Z AUTO 25008KT 5SM -SN OVC016 00/M03 A2998 RMK AO2 SLP172 P0000
                 T00001028 FZRANO =
2017-12-16 13:56 METAR KFKL 161856Z AUTO 23007KT 4SM -SN OVC020 00/M03 A2996 RMK AO2 SLP165 P0000
                 T00001033 FZRANO =
2017-12-16 13:27 METAR KFKL 161827Z AUTO 24011G15KT 5SM -SN BKN023 OVC030 00/M04 A2996 RMK AO2
                 P0000 FZRANO =
2017-12-16 13:18 METAR KFKL 161818Z AUTO 24007KT 4SM -SN SCT021 OVC030 00/M03 A2996 RMK AO2 P0000
                 FZRANO =
2017-12-16 12:56 METAR KFKL 161756Z AUTO 24009KT 4SM -SN BKN026 OVC034 00/M03 A2996 RMK AO2
                 SLP166 P0000 60000 T00001033 10000 21033 58001 FZRANO =
2017-12-16 11:56 METAR KFKL 161656Z AUTO 23012G15KT 6SM -SN BKN022 BKN027 OVC038 M01/M04 A2997
                 RMK AO2 UPB34E42SNE34B42 SLP167 P0000 T10061044 FZRANO =
2017-12-16 11:34 METAR KFKL 161634Z AUTO 23012G18KT 9SM UP SCT019 BKN024 OVC065 M01/M04 A2997 RMK
                 AO2 UPB34SNE34 P0000 FZRANO =
2017-12-16 10:56 METAR KFKL 161556Z AUTO 24009KT 9SM -SN FEW015 SCT030 OVC039 M01/M04 A2997 RMK
                 AO2 SLP168 P0000 T10111044 FZRANO =
2017-12-16 10:52 METAR KFKL 161552Z AUTO 24010KT 9SM -SN FEW015 SCT029 OVC039 M01/M04 A2997 RMK
                 AO2 P0000 FZRANO =
2017-12-16 09:56 METAR KFKL 161456Z AUTO 24010G15KT 8SM -SN BKN013 BKN018 OVC033 M02/M04 A2997
                 RMK AO2 SLP168 P0000 60000 T10171044 51013 FZRANO =
2017-12-16 09:10 METAR KFKL 161410Z AUTO 24008KT 6SM -SN BR BKN011 OVC018 M02/M04 A2996 RMK AO2
                 P0000 FZRANO =
2017-12-16 08:56 METAR KFKL 161356Z AUTO 24010G16KT 8SM -SN BKN009 OVC015 M02/M04 A2995 RMK AO2
                 CIG 008V012 SLP165 P0000 T10221044 FZRANO =
2017-12-16 08:25 METAR KFKL 161325Z AUTO 23011G18KT 4SM -SN BR BKN009 OVC016 M03/M04 A2995 RMK
                 AO2 CIG 007V012 P0000 FZRANO =
2017-12-16 08:16 METAR KFKL 161316Z AUTO 25012KT 2 1/2SM -SN BR BKN009 OVC016 M03/M04 A2995 RMK
                 AO2 VIS 2V4 CIG 007V013 P0000 FZRANO =
2017-12-16 08:07 METAR KFKL 161307Z AUTO 24011KT 3SM -SN BR BKN009 OVC016 M03/M04 A2995 RMK AO2
                 P0000 FZRANO =
2017-12-16 07:56 METAR KFKL 161256Z AUTO 25011KT 2SM -SN BR BKN009 OVC015 M03/M04 A2995 RMK AO2
                 VIS 1 1/4V3 CIG 007V013 SLP166 P0000 T10331044 FZRANO =
2017-12-16 07:36 METAR KFKL 161236Z AUTO 24010KT 190V260 1 3/4SM -SN BR OVC009 M03/M04 A2995 RMK
                 AO2 CIG 007V012 P0000 FZRANO =
2017-12-16 07:30 METAR KFKL 161230Z AUTO 23011KT 3SM -SN BR OVC009 M03/M04 A2995 RMK AO2 CIG
                 007V013 P0000 FZRANO =
2017-12-16 07:14 METAR KFKL 161214Z AUTO 24010G21KT 2SM -SN BR OVC009 M03/M05 A2994 RMK AO2 CIG
                 008V013 P0000 FZRANO =
2017-12-16 06:56 METAR KFKL 161156Z AUTO 23013G19KT 5SM -SN BR OVC009 M03/M05 A2993 RMK AO2 CIG
                 008V013 SLP156 P0000 60000 T10331050 11033 21056 50004 FZRANO =
2017-12-16 06:54 METAR KFKL 161154Z AUTO 25013G16KT 5SM -SN BR OVC009 M03/M05 A2993 RMK AO2 CIG
                 008V013 P0000 FZRANO =
2017-12-16 06:40 METAR KFKL 161140Z AUTO 23010G17KT 2 1/2SM -SN BR OVC009 M04/M05 A2993 RMK AO2
                 P0000 FZRANO =
2017-12-16 06:14 METAR KFKL 161114Z AUTO 24011G17KT 5SM -SN BR OVC009 M04/M06 A2993 RMK AO2 CIG
                 008V012 P0000 FZRANO =
2017-12-16 05:56 METAR KFKL 161056Z AUTO 24010KT 3SM -SN BR OVC011 M04/M06 A2992 RMK AO2 CIG
                 008V012 SLP155 P0000 T10391056 FZRANO =
2017-12-16 05:34 METAR KFKL 161034Z AUTO 24009KT 2 1/2SM -SN BR BKN013 OVC019 M04/M06 A2992 RMK
                 AO2 P0000 FZRANO =
2017-12-16 04:56 METAR KFKL 160956Z AUTO 23011G15KT 5SM -SN OVC019 M04/M07 A2991 RMK AO2 SLP152
                 P0000 T10391067 FZRANO =
2017-12-16 03:56 METAR KFKL 160856Z AUTO 23010KT 7SM -SN BKN025 OVC030 M04/M07 A2992 RMK AO2
                 SLP154 P0000 60000 T10441072 50003 FZRANO =
2017-12-16 02:56 METAR KFKL 160756Z AUTO 23011G15KT 9SM -SN FEW023 BKN041 OVC095 M05/M08 A2993
                 RMK AO2 SLP157 P0000 T10501078 FZRANO =
2017-12-16 01:56 METAR KFKL 160656Z AUTO 24009KT 9SM -SN OVC024 M06/M08 A2991 RMK AO2 SLP152
                 P0000 T10561083 FZRANO =
2017-12-16 00:56 METAR KFKL 160556Z AUTO 24012G19KT 9SM -SN BKN024 BKN046 OVC055 M05/M09 A2991
                 RMK AO2 SLP150 P0000 60000 T10501094 11050 21061 50008 FZRANO =
2017-12-15 23:56 METAR KFKL 160456Z AUTO 25010G17KT 8SM -SN OVC048 M06/M10 A2991 RMK AO2 SLP154
                 P0000 T10561100 410501122 FZRANO =
2017-12-15 22:56 METAR KFKL 160356Z AUTO 25011G19KT 9SM -SN OVC045 M06/M11 A2990 RMK AO2 SLP149
                 P0000 T10561111 FZRANO =
2017-12-15 21:56 METAR KFKL 160256Z AUTO 24013G23KT 8SM -SN FEW026 OVC047 M06/M10 A2988 RMK AO2
                 SLP144 P0000 60000 T10561100 53015 FZRANO =

Support USWX by starting your Amazon purchase here.